LFPO 221030Z 03013KT CAVOK 01/M04 Q1019 NOSIG

ElémentsDécodage
LFPO Station météo située sur l'aérodrome de PARIS Orly
221030Z émis le 22 du mois à 10h30 UTC
03013KT vent du 030°, 13 noeuds
CAVOK Ceiling And Visibility OK
- Visibilité de 10 Km ou plus
- Pas de nuage au-dessous de 1500m ou au-dessous de l'altitude minimale du secteur la plus élevée (si>1500m) et absence de CB
- pas de temps présent significatif
01/M04 température 01°C, point de rosée -04°C
 soit une humidité relative de 69%
Q1019 la pression au niveau de la mer (QNH) est de 1019 hPa
NOSIG Pas de changement significatif prévu au cours des deux heures suivant l'heure de l'observation